createdAt,value
2019-04-05T00:00:25.480Z,6.50
2019-04-05T00:01:06.695Z,5.30
2019-04-05T00:01:42.789Z,5.30
2019-04-05T00:02:18.948Z,5.40
2019-04-05T00:02:55.286Z,6.30
2019-04-05T00:03:31.421Z,5.50
2019-04-05T00:04:07.655Z,7.50
2019-04-05T00:04:45.111Z,6.90
2019-04-05T00:05:22.402Z,5.30
2019-04-05T00:06:00.825Z,8.07
2019-04-05T00:06:37.106Z,5.93
2019-04-05T00:07:13.553Z,5.83
2019-04-05T00:07:49.669Z,5.80
2019-04-05T00:08:25.771Z,7.50
2019-04-05T00:09:02.057Z,7.10
2019-04-05T00:09:38.195Z,6.67
2019-04-05T00:10:14.409Z,7.17
2019-04-05T00:10:50.381Z,6.53
2019-04-05T00:11:26.897Z,5.93
2019-04-05T00:12:03.027Z,7.57
2019-04-05T00:12:39.274Z,6.50
2019-04-05T00:13:15.349Z,6.63
2019-04-05T00:13:51.563Z,6.67
2019-04-05T00:14:27.598Z,5.93
2019-04-05T00:15:14.568Z,8.00
2019-04-05T00:15:41.853Z,7.57
2019-04-05T00:16:18.434Z,6.20
2019-04-05T00:16:54.648Z,7.97
2019-04-05T00:17:31.445Z,7.53
2019-04-05T00:18:07.520Z,7.73
2019-04-05T00:18:43.679Z,7.30
2019-04-05T00:19:19.855Z,8.00
2019-04-05T00:19:56.586Z,6.53
2019-04-05T00:20:33.258Z,7.57
2019-04-05T00:21:09.362Z,8.67
2019-04-05T00:21:45.509Z,7.87
2019-04-05T00:22:21.595Z,7.67
2019-04-05T00:22:57.729Z,7.30
2019-04-05T00:23:33.841Z,8.63
2019-04-05T00:24:10.436Z,7.50
2019-04-05T00:24:47.030Z,7.97
2019-04-05T00:25:23.172Z,8.17
2019-04-05T00:25:59.248Z,8.63
2019-04-05T00:26:35.522Z,8.50
2019-04-05T00:27:11.678Z,7.70
2019-04-05T00:27:47.801Z,8.00
2019-04-05T00:28:25.680Z,8.63
2019-04-05T00:29:02.272Z,8.37
2019-04-05T00:29:38.352Z,7.70
2019-04-05T00:30:14.495Z,8.07
2019-04-05T00:30:50.593Z,6.53
2019-04-05T00:31:26.706Z,6.87
2019-04-05T00:32:02.985Z,6.60
2019-04-05T00:32:39.631Z,6.33
2019-04-05T00:33:15.965Z,6.57
2019-04-05T00:33:52.064Z,5.77
2019-04-05T00:34:28.376Z,5.97
2019-04-05T00:35:06.850Z,6.10
2019-04-05T00:35:42.922Z,6.50
2019-04-05T00:36:19.091Z,5.37
2019-04-05T00:36:56.363Z,6.60
2019-04-05T00:37:33.008Z,7.23
2019-04-05T00:38:09.643Z,5.90
2019-04-05T00:38:48.000Z,6.53
2019-04-05T00:39:24.120Z,6.17
2019-04-05T00:40:00.296Z,5.53
2019-04-05T00:40:36.482Z,5.57
2019-04-05T00:41:13.502Z,5.10
2019-04-05T00:41:49.977Z,5.30
2019-04-05T00:42:26.088Z,4.90
2019-04-05T00:43:02.272Z,5.10
2019-04-05T00:43:38.728Z,5.17
2019-04-05T00:44:14.880Z,6.43
2019-04-05T00:44:51.157Z,4.83
2019-04-05T00:45:28.665Z,4.40
2019-04-05T00:46:05.490Z,5.87
2019-04-05T00:46:44.590Z,4.70
2019-04-05T00:47:20.127Z,5.80
2019-04-05T00:47:56.266Z,5.80
2019-04-05T00:48:37.411Z,5.13
2019-04-05T00:49:13.454Z,5.00
2019-04-05T00:49:49.494Z,5.27
2019-04-05T00:50:26.153Z,5.20
2019-04-05T00:51:02.386Z,4.80
2019-04-05T00:51:38.560Z,4.33
2019-04-05T00:52:14.723Z,4.93
2019-04-05T00:52:50.832Z,5.17
2019-04-05T00:53:26.889Z,4.00
2019-04-05T00:54:03.179Z,5.53
2019-04-05T00:54:39.864Z,5.00
2019-04-05T00:55:16.217Z,5.33
2019-04-05T00:55:52.299Z,4.57
2019-04-05T00:56:28.487Z,5.10
2019-04-05T00:57:04.675Z,4.87
2019-04-05T00:57:40.814Z,5.17
2019-04-05T00:58:17.008Z,4.00
2019-04-05T00:58:53.820Z,4.33
2019-04-05T00:59:30.004Z,4.50
2019-04-05T01:00:06.795Z,4.93
2019-04-05T01:00:42.953Z,5.40
2019-04-05T01:01:19.717Z,5.37
2019-04-05T01:01:56.270Z,5.50
2019-04-05T01:02:32.548Z,5.03
2019-04-05T01:03:08.892Z,5.60
2019-04-05T01:03:44.946Z,5.50
2019-04-05T01:04:21.503Z,5.37
2019-04-05T01:04:57.810Z,4.93
2019-04-05T01:05:34.400Z,5.80
2019-04-05T01:06:10.704Z,5.37
2019-04-05T01:06:46.940Z,5.30
2019-04-05T01:07:23.109Z,5.47
2019-04-05T01:07:59.834Z,5.17
2019-04-05T01:08:36.099Z,5.43
2019-04-05T01:09:12.197Z,4.50
2019-04-05T01:09:48.353Z,4.93
2019-04-05T01:10:24.549Z,6.43
2019-04-05T01:11:00.695Z,6.53
2019-04-05T01:11:37.697Z,5.63
2019-04-05T01:12:14.985Z,6.93
2019-04-05T01:12:51.141Z,6.60
2019-04-05T01:13:27.275Z,6.70
2019-04-05T01:14:03.881Z,6.10
2019-04-05T01:14:40.010Z,6.97
2019-04-05T01:15:16.584Z,6.70
2019-04-05T01:15:53.222Z,6.73
2019-04-05T01:16:30.139Z,6.27
2019-04-05T01:17:06.328Z,6.67
2019-04-05T01:17:43.006Z,5.90
2019-04-05T01:18:19.267Z,6.00
2019-04-05T01:18:55.441Z,6.67
2019-04-05T01:19:34.600Z,6.43
2019-04-05T01:20:12.679Z,6.57
2019-04-05T01:20:51.564Z,5.77
2019-04-05T01:21:27.861Z,5.57
2019-04-05T01:22:06.755Z,5.37
2019-04-05T01:22:43.751Z,6.20
2019-04-05T01:23:20.328Z,6.37
2019-04-05T01:23:58.045Z,5.90
2019-04-05T01:24:34.627Z,4.93
2019-04-05T01:25:11.346Z,6.63
2019-04-05T01:25:47.752Z,6.20
2019-04-05T01:26:23.944Z,5.80
2019-04-05T01:27:01.144Z,6.07
2019-04-05T01:27:37.331Z,5.53
2019-04-05T01:28:13.643Z,5.50
2019-04-05T01:28:50.279Z,6.13
2019-04-05T01:29:27.013Z,5.53
2019-04-05T01:30:03.028Z,5.47
2019-04-05T01:30:39.251Z,5.63
2019-04-05T01:31:15.397Z,5.40
2019-04-05T01:31:51.613Z,6.00
2019-04-05T01:32:27.778Z,5.97
2019-04-05T01:33:03.982Z,4.90
2019-04-05T01:33:40.130Z,5.33
2019-04-05T01:34:16.291Z,6.27
2019-04-05T01:34:52.364Z,5.47
2019-04-05T01:35:28.630Z,5.10
2019-04-05T01:36:04.744Z,5.17
2019-04-05T01:36:40.930Z,6.03
2019-04-05T01:37:18.006Z,4.87
2019-04-05T01:37:54.928Z,5.87
2019-04-05T01:38:31.453Z,7.13
2019-04-05T01:39:08.345Z,5.50
2019-04-05T01:39:44.686Z,4.70
2019-04-05T01:40:21.037Z,5.77
2019-04-05T01:40:58.965Z,5.23
2019-04-05T01:41:35.410Z,4.67
2019-04-05T01:42:12.183Z,5.27
2019-04-05T01:42:49.337Z,4.13
2019-04-05T01:43:25.822Z,4.40
2019-04-05T01:44:02.192Z,4.90
2019-04-05T01:44:40.509Z,5.17
2019-04-05T01:45:16.924Z,4.13
2019-04-05T01:45:54.255Z,4.60
2019-04-05T01:46:31.366Z,4.80
2019-04-05T01:47:07.944Z,5.17
2019-04-05T01:47:44.474Z,5.20
2019-04-05T01:48:20.943Z,5.47
2019-04-05T01:48:57.431Z,4.83
2019-04-05T01:49:33.945Z,6.23
2019-04-05T01:50:10.947Z,4.43
2019-04-05T01:50:48.261Z,5.30
2019-04-05T01:51:24.818Z,4.87
2019-04-05T01:52:01.471Z,5.27
2019-04-05T01:52:37.945Z,6.17
2019-04-05T01:53:14.479Z,5.13
2019-04-05T01:53:51.174Z,5.73
2019-04-05T01:54:29.157Z,4.57
2019-04-05T01:55:06.006Z,5.50
2019-04-05T01:55:42.149Z,6.60
2019-04-05T01:56:18.327Z,5.80
2019-04-05T01:56:54.686Z,5.50
2019-04-05T01:57:30.762Z,5.70
2019-04-05T01:58:06.935Z,6.23
2019-04-05T01:58:42.940Z,6.00
2019-04-05T01:59:19.754Z,5.30
2019-04-05T01:59:56.072Z,5.43
2019-04-05T02:00:32.118Z,4.60
2019-04-05T02:01:08.208Z,5.13
2019-04-05T02:01:44.358Z,5.57
2019-04-05T02:02:20.441Z,5.57
2019-04-05T02:02:56.566Z,5.67
2019-04-05T02:03:32.775Z,4.97
2019-04-05T02:04:09.506Z,5.10
2019-04-05T02:04:45.664Z,5.03
2019-04-05T02:05:21.900Z,4.53
2019-04-05T02:05:57.973Z,5.67
2019-04-05T02:06:36.000Z,6.07
2019-04-05T02:07:12.242Z,4.43
2019-04-05T02:07:48.903Z,5.20
2019-04-05T02:08:25.809Z,5.77
2019-04-05T02:09:01.887Z,5.20
2019-04-05T02:09:37.941Z,5.43
2019-04-05T02:10:14.136Z,5.93
2019-04-05T02:10:50.343Z,4.80
2019-04-05T02:11:26.336Z,5.40
2019-04-05T02:12:03.248Z,5.00
2019-04-05T02:12:40.613Z,5.00
2019-04-05T02:13:16.691Z,6.30
2019-04-05T02:13:52.781Z,5.17
2019-04-05T02:14:28.927Z,5.80
2019-04-05T02:15:05.006Z,5.60
2019-04-05T02:15:41.983Z,5.43
2019-04-05T02:16:19.346Z,5.37
2019-04-05T02:16:55.932Z,6.27
2019-04-05T02:17:35.779Z,5.30
2019-04-05T02:18:11.396Z,5.03
2019-04-05T02:18:47.437Z,5.50
2019-04-05T02:19:23.539Z,5.33
2019-04-05T02:19:59.747Z,5.60
2019-04-05T02:20:36.199Z,5.37
2019-04-05T02:21:12.917Z,5.30
2019-04-05T02:21:49.133Z,5.00
2019-04-05T02:22:25.289Z,5.20
2019-04-05T02:23:01.444Z,6.10
2019-04-05T02:23:37.623Z,5.37
2019-04-05T02:24:13.869Z,4.70
2019-04-05T02:24:50.535Z,4.57
2019-04-05T02:25:27.144Z,4.83
2019-04-05T02:26:03.500Z,5.40
2019-04-05T02:26:39.884Z,5.07
2019-04-05T02:27:15.924Z,4.90
2019-04-05T02:27:52.295Z,4.37
2019-04-05T02:28:28.490Z,4.80
2019-04-05T02:29:05.467Z,5.10
2019-04-05T02:29:42.238Z,5.77
2019-04-05T02:30:18.964Z,5.23
2019-04-05T02:30:55.145Z,4.60
2019-04-05T02:31:31.292Z,4.20
2019-04-05T02:32:07.424Z,4.70
2019-04-05T02:32:43.521Z,5.20
2019-04-05T02:33:19.597Z,4.97
2019-04-05T02:33:55.747Z,4.77
2019-04-05T02:34:31.977Z,6.13
2019-04-05T02:35:08.407Z,4.63
2019-04-05T02:35:44.947Z,4.00
2019-04-05T02:36:22.782Z,4.50
2019-04-05T02:37:01.224Z,4.60
2019-04-05T02:37:37.376Z,5.00
2019-04-05T02:38:14.349Z,4.20
2019-04-05T02:38:50.779Z,5.23
2019-04-05T02:39:27.102Z,4.57
2019-04-05T02:40:03.276Z,5.10
2019-04-05T02:40:41.298Z,5.37
2019-04-05T02:41:17.584Z,4.17
2019-04-05T02:41:53.848Z,3.83
2019-04-05T02:42:30.916Z,4.37
2019-04-05T02:43:07.056Z,4.40
2019-04-05T02:43:43.420Z,3.30
2019-04-05T02:44:20.124Z,3.90
2019-04-05T02:44:56.411Z,4.13
2019-04-05T02:45:35.077Z,4.37
2019-04-05T02:46:23.613Z,4.20
2019-04-05T02:46:51.308Z,3.80
2019-04-05T02:47:27.590Z,4.20
2019-04-05T02:48:05.773Z,5.30
2019-04-05T02:48:43.333Z,4.17
2019-04-05T02:49:19.498Z,4.77
2019-04-05T02:49:57.236Z,5.30
2019-04-05T02:50:34.004Z,5.53
2019-04-05T02:51:11.496Z,5.03
2019-04-05T02:51:49.556Z,4.63
2019-04-05T02:52:25.594Z,4.30
2019-04-05T02:53:03.707Z,3.67
2019-04-05T02:53:40.837Z,5.13
2019-04-05T02:54:17.583Z,4.13
2019-04-05T02:54:54.248Z,4.10
2019-04-05T02:55:31.915Z,4.17
2019-04-05T02:56:08.949Z,3.80
2019-04-05T02:56:45.495Z,3.73
2019-04-05T02:57:22.272Z,4.20
2019-04-05T02:57:59.011Z,3.63
2019-04-05T02:58:35.799Z,3.90
2019-04-05T02:59:12.137Z,3.70
2019-04-05T02:59:48.680Z,4.10
2019-04-05T03:00:24.998Z,3.67
2019-04-05T03:01:01.177Z,3.60
2019-04-05T03:01:39.768Z,3.90
2019-04-05T03:02:16.111Z,4.77
2019-04-05T03:02:54.343Z,4.47
2019-04-05T03:03:30.573Z,5.03
2019-04-05T03:04:07.225Z,4.13
2019-04-05T03:04:43.336Z,4.10
2019-04-05T03:05:20.378Z,4.10
2019-04-05T03:05:56.988Z,3.40
2019-04-05T03:06:34.366Z,4.80
2019-04-05T03:07:11.515Z,4.20
2019-04-05T03:07:47.744Z,4.10
2019-04-05T03:08:24.268Z,5.13
2019-04-05T03:09:00.917Z,4.27
2019-04-05T03:09:37.357Z,4.10
2019-04-05T03:10:33.539Z,4.83
2019-04-05T03:11:14.914Z,4.97
2019-04-05T03:11:51.495Z,4.60
2019-04-05T03:12:30.874Z,5.03
2019-04-05T03:13:08.824Z,6.20
2019-04-05T03:13:51.247Z,5.20
2019-04-05T03:14:27.366Z,4.10
2019-04-05T03:15:05.035Z,4.03
2019-04-05T03:15:41.235Z,4.67
2019-04-05T03:16:21.927Z,5.20
2019-04-05T03:16:58.075Z,5.25
2019-04-05T03:17:35.538Z,5.10
2019-04-05T03:18:11.700Z,4.57
2019-04-05T03:19:02.137Z,5.60
2019-04-05T03:19:39.248Z,5.73
2019-04-05T03:20:15.345Z,5.40
2019-04-05T03:20:51.690Z,4.90
2019-04-05T03:21:29.791Z,5.50
2019-04-05T03:22:06.765Z,5.23
2019-04-05T03:22:42.937Z,5.43
2019-04-05T03:23:19.121Z,5.23
2019-04-05T03:23:56.469Z,4.73
2019-04-05T03:24:34.340Z,5.70
2019-04-05T03:25:10.818Z,6.57
2019-04-05T03:25:48.277Z,5.10
2019-04-05T03:26:26.308Z,5.87
2019-04-05T03:27:05.506Z,5.20
2019-04-05T03:27:41.709Z,6.23
2019-04-05T03:28:17.981Z,5.83
2019-04-05T03:28:55.561Z,5.50
2019-04-05T03:29:32.498Z,6.50
2019-04-05T03:30:09.581Z,6.57
2019-04-05T03:30:45.646Z,6.50
2019-04-05T03:31:25.118Z,5.93
2019-04-05T03:32:00.023Z,6.23
2019-04-05T03:32:36.195Z,5.53
2019-04-05T03:33:12.315Z,5.50
2019-04-05T03:33:48.446Z,6.00
2019-04-05T03:34:24.940Z,5.77
2019-04-05T03:35:01.321Z,6.27
2019-04-05T03:35:38.404Z,6.20
2019-04-05T03:36:14.712Z,5.87
2019-04-05T03:36:51.950Z,6.30
2019-04-05T03:37:28.321Z,6.67
2019-04-05T03:38:04.671Z,5.00
2019-04-05T03:38:41.776Z,5.40
2019-04-05T03:39:18.186Z,5.20
2019-04-05T03:39:54.550Z,5.80
2019-04-05T03:40:30.825Z,5.80
2019-04-05T03:41:07.036Z,6.53
2019-04-05T03:41:43.248Z,6.23
2019-04-05T03:42:19.520Z,6.33
2019-04-05T03:42:56.814Z,6.17
2019-04-05T03:43:33.178Z,6.40
2019-04-05T03:44:10.642Z,6.73
2019-04-05T03:44:47.004Z,6.30
2019-04-05T03:45:23.045Z,6.10
2019-04-05T03:45:59.230Z,6.10
2019-04-05T03:46:35.666Z,6.73
2019-04-05T03:47:13.085Z,6.10
2019-04-05T03:47:49.542Z,6.03
2019-04-05T03:48:25.715Z,6.20
2019-04-05T03:49:01.995Z,5.97
2019-04-05T03:49:38.037Z,6.73
2019-04-05T03:50:15.780Z,6.10
2019-04-05T03:50:51.937Z,6.87
2019-04-05T03:51:28.595Z,5.53
2019-04-05T03:52:06.785Z,5.57
2019-04-05T03:52:42.921Z,6.30
2019-04-05T03:53:19.005Z,4.70
2019-04-05T03:53:55.050Z,5.50
2019-04-05T03:54:31.720Z,4.90
2019-04-05T03:55:08.472Z,5.70
2019-04-05T03:55:45.072Z,5.17
2019-04-05T03:56:21.649Z,5.03
2019-04-05T03:56:57.875Z,5.13
2019-04-05T03:57:34.033Z,5.83
2019-04-05T03:58:11.473Z,4.83
2019-04-05T03:58:48.509Z,4.97
2019-04-05T03:59:24.685Z,5.40
2019-04-05T04:00:01.398Z,4.93
2019-04-05T04:00:38.091Z,5.57
2019-04-05T04:01:14.256Z,4.83
2019-04-05T04:01:50.635Z,4.90
2019-04-05T04:02:26.761Z,4.60
2019-04-05T04:03:02.858Z,4.60
2019-04-05T04:03:39.134Z,5.20
2019-04-05T04:04:15.829Z,4.43
2019-04-05T04:04:52.362Z,5.10
2019-04-05T04:05:28.406Z,6.10
2019-04-05T04:06:04.540Z,4.30
2019-04-05T04:06:40.730Z,4.50
2019-04-05T04:07:16.801Z,4.70
2019-04-05T04:07:52.958Z,4.20
2019-04-05T04:08:29.361Z,5.03
2019-04-05T04:09:06.885Z,4.37
2019-04-05T04:09:43.124Z,4.50
2019-04-05T04:10:20.097Z,5.20
2019-04-05T04:10:56.966Z,4.60
2019-04-05T04:11:32.995Z,5.53
2019-04-05T04:12:09.250Z,4.90
2019-04-05T04:12:46.008Z,5.17
2019-04-05T04:13:22.560Z,5.17
2019-04-05T04:13:58.848Z,4.57
2019-04-05T04:14:34.981Z,4.33
2019-04-05T04:15:14.924Z,4.60
2019-04-05T04:15:52.563Z,4.00
2019-04-05T04:16:28.942Z,4.90
2019-04-05T04:17:12.554Z,4.53
2019-04-05T04:17:44.637Z,4.63
2019-04-05T04:18:20.780Z,4.80
2019-04-05T04:18:56.870Z,5.03
2019-04-05T04:19:33.060Z,3.90
2019-04-05T04:20:09.411Z,4.40
2019-04-05T04:20:49.835Z,4.77
2019-04-05T04:22:05.577Z,4.17
2019-04-05T04:22:41.825Z,5.00
2019-04-05T04:23:17.887Z,4.60
2019-04-05T04:23:54.165Z,3.63
2019-04-05T04:24:30.366Z,4.17
2019-04-05T04:25:06.737Z,4.30
2019-04-05T04:25:43.032Z,4.10
2019-04-05T04:26:20.065Z,3.67
2019-04-05T04:26:56.179Z,3.97
2019-04-05T04:27:32.512Z,4.63
2019-04-05T04:28:08.711Z,3.43
2019-04-05T04:28:44.850Z,3.63
2019-04-05T04:29:21.699Z,4.90
2019-04-05T04:30:00.338Z,3.60
2019-04-05T04:30:37.341Z,3.73
2019-04-05T04:31:13.409Z,3.93
2019-04-05T04:31:49.946Z,3.57
2019-04-05T04:32:26.038Z,3.67
2019-04-05T04:33:03.294Z,4.60
2019-04-05T04:33:39.539Z,3.90
2019-04-05T04:34:15.829Z,3.53
2019-04-05T04:34:52.820Z,3.93
2019-04-05T04:35:28.954Z,4.00
2019-04-05T04:36:05.061Z,4.13
2019-04-05T04:36:41.343Z,3.73
2019-04-05T04:37:17.451Z,4.20
2019-04-05T04:37:53.561Z,4.30
2019-04-05T04:38:29.944Z,4.30
2019-04-05T04:39:07.224Z,4.60
2019-04-05T04:39:43.434Z,4.37
2019-04-05T04:40:19.687Z,4.90
2019-04-05T04:40:56.680Z,4.27
2019-04-05T04:41:32.906Z,4.00
2019-04-05T04:42:09.276Z,4.37
2019-04-05T04:42:45.403Z,4.23
2019-04-05T04:43:22.796Z,3.90
2019-04-05T04:43:59.162Z,3.60
2019-04-05T04:44:35.276Z,4.53
2019-04-05T04:45:12.845Z,4.00
2019-04-05T04:45:49.238Z,4.37
2019-04-05T04:46:25.380Z,4.27
2019-04-05T04:47:01.601Z,4.63
2019-04-05T04:47:38.083Z,4.73
2019-04-05T04:48:14.714Z,4.80
2019-04-05T04:48:50.980Z,5.50
2019-04-05T04:49:27.228Z,4.63
2019-04-05T04:50:03.582Z,5.30
2019-04-05T04:50:40.193Z,4.80
2019-04-05T04:51:16.563Z,4.20
2019-04-05T04:51:53.394Z,3.93
2019-04-05T04:52:31.569Z,4.67
2019-04-05T04:53:07.833Z,5.57
2019-04-05T04:53:44.061Z,4.87
2019-04-05T04:54:20.297Z,4.70
2019-04-05T04:54:56.535Z,3.70
2019-04-05T04:55:32.794Z,4.13
2019-04-05T04:56:10.871Z,4.67
2019-04-05T04:56:47.537Z,4.43
2019-04-05T04:57:23.696Z,4.03
2019-04-05T04:57:59.814Z,4.77
2019-04-05T04:58:36.105Z,4.63
2019-04-05T04:59:12.455Z,4.73
2019-04-05T04:59:48.769Z,5.00
2019-04-05T05:00:25.641Z,5.20
2019-04-05T05:01:02.243Z,4.30
2019-04-05T05:01:38.657Z,4.20
2019-04-05T05:02:15.146Z,4.03
2019-04-05T05:02:51.244Z,4.13
2019-04-05T05:03:27.451Z,4.80
2019-04-05T05:04:03.824Z,4.27
2019-04-05T05:04:40.655Z,4.43
2019-04-05T05:05:17.117Z,4.50
2019-04-05T05:05:53.315Z,4.90
2019-04-05T05:06:29.567Z,4.30
2019-04-05T05:07:05.851Z,3.80
2019-04-05T05:07:42.311Z,4.00
2019-04-05T05:08:18.470Z,3.77
2019-04-05T05:08:55.076Z,3.70
2019-04-05T05:09:31.211Z,3.97
2019-04-05T05:10:07.906Z,3.93
2019-04-05T05:10:44.219Z,3.57
2019-04-05T05:11:20.386Z,4.53
2019-04-05T05:11:56.804Z,3.60
2019-04-05T05:12:32.943Z,3.53
2019-04-05T05:13:09.238Z,3.60
2019-04-05T05:13:48.087Z,3.73
2019-04-05T05:14:24.463Z,3.33
2019-04-05T05:15:00.690Z,4.03
2019-04-05T05:15:37.148Z,3.50
2019-04-05T05:16:13.467Z,3.17
2019-04-05T05:16:49.628Z,3.00
2019-04-05T05:17:37.504Z,3.07
2019-04-05T05:18:03.688Z,3.20
2019-04-05T05:18:41.761Z,3.00
2019-04-05T05:19:17.874Z,3.30
2019-04-05T05:19:54.917Z,3.30
2019-04-05T05:20:31.317Z,2.73
2019-04-05T05:21:08.030Z,2.77
2019-04-05T05:21:44.424Z,2.23
2019-04-05T05:22:20.672Z,3.00
2019-04-05T05:22:56.827Z,2.90
2019-04-05T05:23:32.981Z,3.03
2019-04-05T05:24:09.152Z,2.50
2019-04-05T05:24:45.336Z,3.10
2019-04-05T05:25:21.700Z,2.43
2019-04-05T05:25:58.171Z,2.80
2019-04-05T05:26:34.491Z,2.37
2019-04-05T05:27:10.683Z,2.30
2019-04-05T05:27:46.931Z,2.60
2019-04-05T05:28:23.255Z,2.57
2019-04-05T05:28:59.424Z,2.97
2019-04-05T05:29:35.584Z,2.97
2019-04-05T05:30:12.849Z,2.80
2019-04-05T05:30:48.946Z,2.90
2019-04-05T05:31:25.581Z,2.20
2019-04-05T05:32:01.818Z,2.77
2019-04-05T05:32:37.882Z,2.70
2019-04-05T05:33:14.062Z,2.90
2019-04-05T05:33:50.253Z,2.90
2019-04-05T05:34:26.451Z,2.77
2019-04-05T05:35:02.741Z,2.40
2019-04-05T05:35:38.910Z,2.87
2019-04-05T05:36:15.170Z,2.73
2019-04-05T05:36:51.514Z,3.10
2019-04-05T05:37:27.909Z,2.90
2019-04-05T05:38:06.843Z,2.57
2019-04-05T05:38:42.986Z,3.10
2019-04-05T05:39:21.708Z,2.80
2019-04-05T05:39:57.866Z,2.70
2019-04-05T05:40:35.555Z,2.43
2019-04-05T05:41:11.809Z,3.10
2019-04-05T05:41:47.988Z,3.00
2019-04-05T05:42:23.987Z,2.57
2019-04-05T05:43:00.117Z,2.53
2019-04-05T05:43:36.296Z,2.77
2019-04-05T05:44:12.542Z,2.20
2019-04-05T05:44:48.663Z,2.80
2019-04-05T05:45:24.728Z,2.63
2019-04-05T05:46:00.967Z,3.27
2019-04-05T05:46:37.272Z,3.03
2019-04-05T05:47:13.383Z,3.23
2019-04-05T05:47:52.030Z,2.93
2019-04-05T05:48:30.944Z,2.83
2019-04-05T05:49:07.193Z,2.53
2019-04-05T05:49:43.405Z,2.77
2019-04-05T05:50:19.598Z,2.83
2019-04-05T05:50:55.598Z,3.03
2019-04-05T05:51:31.949Z,3.50
2019-04-05T05:52:08.066Z,2.60
2019-04-05T05:52:44.292Z,3.33
2019-04-05T05:53:20.523Z,3.47
2019-04-05T05:53:56.640Z,4.20
2019-04-05T05:54:32.778Z,3.40
2019-04-05T05:55:09.043Z,2.80
2019-04-05T05:55:45.813Z,3.30
2019-04-05T05:56:21.949Z,3.20
2019-04-05T05:56:58.011Z,2.87
2019-04-05T05:57:34.236Z,3.40
2019-04-05T05:58:10.370Z,3.10
2019-04-05T05:58:46.466Z,2.60
2019-04-05T05:59:23.075Z,3.10
2019-04-05T06:00:00.607Z,3.23
2019-04-05T06:00:38.186Z,3.27
2019-04-05T06:01:14.351Z,2.73
2019-04-05T06:01:50.413Z,3.80
2019-04-05T06:02:26.516Z,3.93
2019-04-05T06:03:02.586Z,3.20
2019-04-05T06:03:38.838Z,3.60
2019-04-05T06:04:14.937Z,3.20
2019-04-05T06:04:50.941Z,3.43
2019-04-05T06:05:27.170Z,3.73
2019-04-05T06:06:04.417Z,3.77
2019-04-05T06:06:41.087Z,3.17
2019-04-05T06:07:20.009Z,3.10
2019-04-05T06:07:55.119Z,3.70
2019-04-05T06:08:31.170Z,3.13
2019-04-05T06:09:09.240Z,3.40
2019-04-05T06:09:47.663Z,3.17
2019-04-05T06:10:25.387Z,3.43
2019-04-05T06:11:01.509Z,2.90
2019-04-05T06:11:37.611Z,2.90
2019-04-05T06:12:13.724Z,3.50
2019-04-05T06:12:49.900Z,3.70
2019-04-05T06:13:26.021Z,3.47
2019-04-05T06:14:06.190Z,3.47
2019-04-05T06:14:42.337Z,2.73
2019-04-05T06:15:18.450Z,2.77
2019-04-05T06:15:54.656Z,3.27
2019-04-05T06:16:30.762Z,2.87
2019-04-05T06:17:06.796Z,3.70
2019-04-05T06:17:42.889Z,3.10
2019-04-05T06:18:19.025Z,4.27
2019-04-05T06:18:55.254Z,4.47
2019-04-05T06:19:31.491Z,4.03
2019-04-05T06:20:08.680Z,3.87
2019-04-05T06:20:45.260Z,3.10
2019-04-05T06:21:21.523Z,3.30
2019-04-05T06:21:57.718Z,3.57
2019-04-05T06:22:33.892Z,3.30
2019-04-05T06:23:10.233Z,3.47
2019-04-05T06:23:46.357Z,3.50
2019-04-05T06:24:22.414Z,2.93
2019-04-05T06:24:58.468Z,3.13
2019-04-05T06:25:34.932Z,3.10
2019-04-05T06:26:10.992Z,4.30
2019-04-05T06:26:47.144Z,3.30
2019-04-05T06:27:23.536Z,3.50
2019-04-05T06:28:00.057Z,3.73
2019-04-05T06:28:36.424Z,3.80
2019-04-05T06:29:12.661Z,3.87
2019-04-05T06:29:48.676Z,3.17
2019-04-05T06:30:24.888Z,3.93
2019-04-05T06:31:01.354Z,3.10
2019-04-05T06:31:38.148Z,3.50
2019-04-05T06:32:14.236Z,4.00
2019-04-05T06:32:50.291Z,3.30
2019-04-05T06:33:31.661Z,3.10
2019-04-05T06:34:04.369Z,3.03
2019-04-05T06:34:40.528Z,3.53
2019-04-05T06:35:16.592Z,3.30
2019-04-05T06:35:52.769Z,3.63
2019-04-05T06:36:29.546Z,3.20
2019-04-05T06:37:05.728Z,3.30
2019-04-05T06:37:41.892Z,3.20
2019-04-05T06:38:18.038Z,3.33
2019-04-05T06:38:54.274Z,3.30
2019-04-05T06:39:30.339Z,3.83
2019-04-05T06:40:07.212Z,4.03
2019-04-05T06:40:44.022Z,4.07
2019-04-05T06:41:20.159Z,4.40
2019-04-05T06:41:56.281Z,3.30
2019-04-05T06:42:32.384Z,3.83
2019-04-05T06:43:08.400Z,3.17
2019-04-05T06:43:44.495Z,3.93
2019-04-05T06:44:21.520Z,3.57
2019-04-05T06:44:58.423Z,3.60
2019-04-05T06:45:34.596Z,4.23
2019-04-05T06:46:10.736Z,3.90
2019-04-05T06:46:47.030Z,3.83
2019-04-05T06:47:24.765Z,4.40
2019-04-05T06:48:01.036Z,4.00
2019-04-05T06:48:37.309Z,4.50
2019-04-05T06:49:13.441Z,3.73
2019-04-05T06:49:49.550Z,3.70
2019-04-05T06:50:25.693Z,4.20
2019-04-05T06:51:01.890Z,3.93
2019-04-05T06:51:37.983Z,3.47
2019-04-05T06:52:13.959Z,3.30
2019-04-05T06:52:50.171Z,4.10
2019-04-05T06:53:26.300Z,3.90
2019-04-05T06:54:03.429Z,3.80
2019-04-05T06:54:39.574Z,3.57
2019-04-05T06:55:15.773Z,4.13
2019-04-05T06:55:51.922Z,3.90
2019-04-05T06:56:27.984Z,3.83
2019-04-05T06:57:04.057Z,3.73
2019-04-05T06:57:40.330Z,4.33
2019-04-05T06:58:20.255Z,3.80
2019-04-05T06:58:54.423Z,3.77
2019-04-05T06:59:30.706Z,4.03
2019-04-05T07:00:07.105Z,3.87
2019-04-05T07:00:56.492Z,3.30
2019-04-05T07:01:21.136Z,3.73
2019-04-05T07:01:57.283Z,3.67
2019-04-05T07:02:33.471Z,3.67
2019-04-05T07:03:09.579Z,4.00
2019-04-05T07:03:45.768Z,4.43
2019-04-05T07:04:21.855Z,3.73
2019-04-05T07:04:58.008Z,3.47
2019-04-05T07:05:34.278Z,3.70
2019-04-05T07:06:11.049Z,3.57
2019-04-05T07:06:47.298Z,4.77
2019-04-05T07:07:23.374Z,3.77
2019-04-05T07:07:59.389Z,3.50
2019-04-05T07:08:35.666Z,3.63
2019-04-05T07:09:11.795Z,3.93
2019-04-05T07:09:47.920Z,3.57
2019-04-05T07:10:24.090Z,3.67
2019-04-05T07:11:01.044Z,4.10
2019-04-05T07:11:37.152Z,4.80
2019-04-05T07:12:13.349Z,3.80
2019-04-05T07:12:49.539Z,4.30
2019-04-05T07:13:27.412Z,4.10
2019-04-05T07:14:03.717Z,3.80
2019-04-05T07:14:39.926Z,4.30
2019-04-05T07:15:16.140Z,3.67
2019-04-05T07:15:52.205Z,4.10
2019-04-05T07:16:28.242Z,5.13
2019-04-05T07:17:04.588Z,4.60
2019-04-05T07:17:40.723Z,4.13
2019-04-05T07:18:16.966Z,3.63
2019-04-05T07:18:53.813Z,4.60
2019-04-05T07:19:29.967Z,3.60
2019-04-05T07:20:06.150Z,4.13
2019-04-05T07:20:42.164Z,3.47
2019-04-05T07:21:18.305Z,3.77
2019-04-05T07:21:54.548Z,3.80
2019-04-05T07:22:38.677Z,4.00
2019-04-05T07:23:08.513Z,4.23
2019-04-05T07:23:45.165Z,4.17
2019-04-05T07:24:21.351Z,3.27
2019-04-05T07:24:57.524Z,4.37
2019-04-05T07:25:33.717Z,3.67
2019-04-05T07:26:09.890Z,3.97
2019-04-05T07:26:46.053Z,4.47
2019-04-05T07:27:22.874Z,3.80
2019-04-05T07:27:59.708Z,4.30
2019-04-05T07:28:35.810Z,4.20
2019-04-05T07:29:11.879Z,4.17
2019-04-05T07:29:47.969Z,3.50
2019-04-05T07:30:24.105Z,4.17
2019-04-05T07:31:00.232Z,3.77
2019-04-05T07:31:36.313Z,3.83
2019-04-05T07:32:12.961Z,4.07
2019-04-05T07:32:49.053Z,3.70
2019-04-05T07:33:25.158Z,4.20
2019-04-05T07:34:01.339Z,3.70
2019-04-05T07:34:37.462Z,3.53
2019-04-05T07:35:14.837Z,4.00
2019-04-05T07:35:50.974Z,4.83
2019-04-05T07:36:27.487Z,3.80
2019-04-05T07:37:04.113Z,4.80
2019-04-05T07:37:40.264Z,3.60
2019-04-05T07:38:16.540Z,3.93
2019-04-05T07:38:52.702Z,3.80
2019-04-05T07:39:28.896Z,4.47
2019-04-05T07:40:05.025Z,3.70
2019-04-05T07:40:41.225Z,4.43
2019-04-05T07:41:17.761Z,4.33
2019-04-05T07:41:53.916Z,3.90
2019-04-05T07:42:30.062Z,3.80
2019-04-05T07:43:06.308Z,4.30
2019-04-05T07:43:42.451Z,4.80
2019-04-05T07:44:18.633Z,4.30
2019-04-05T07:44:55.259Z,3.73
2019-04-05T07:45:31.406Z,3.87
2019-04-05T07:46:07.521Z,5.13
2019-04-05T07:46:46.436Z,4.10
2019-04-05T07:47:21.556Z,4.20
2019-04-05T07:47:57.731Z,4.20
2019-04-05T07:48:44.219Z,5.20
2019-04-05T07:49:12.163Z,4.27
2019-04-05T07:49:48.858Z,4.20
2019-04-05T07:50:24.968Z,3.90
2019-04-05T07:51:01.064Z,4.13
2019-04-05T07:51:37.311Z,3.90
2019-04-05T07:52:13.362Z,3.77
2019-04-05T07:52:49.452Z,4.20
2019-04-05T07:53:25.633Z,4.00
2019-04-05T07:54:01.862Z,4.10
2019-04-05T07:54:37.895Z,4.37
2019-04-05T07:55:14.657Z,4.07
2019-04-05T07:55:50.818Z,3.63
2019-04-05T07:56:27.305Z,4.13
2019-04-05T07:57:05.444Z,4.43
2019-04-05T07:57:41.509Z,4.03
2019-04-05T07:58:18.222Z,4.67
2019-04-05T07:58:54.307Z,4.37
2019-04-05T07:59:30.457Z,4.30
2019-04-05T08:00:09.555Z,4.37
2019-04-05T08:00:50.999Z,4.80
2019-04-05T08:01:27.114Z,5.00
2019-04-05T08:02:03.854Z,4.33
2019-04-05T08:02:39.920Z,3.90
2019-04-05T08:03:16.130Z,4.13
2019-04-05T08:03:52.298Z,4.07
2019-04-05T08:04:28.394Z,4.43
2019-04-05T08:05:06.335Z,4.30
2019-04-05T08:05:42.413Z,4.13
2019-04-05T08:06:19.121Z,4.10
2019-04-05T08:06:56.100Z,4.50
2019-04-05T08:07:35.877Z,4.20
2019-04-05T08:08:15.666Z,4.53